createdAt,value
2023-06-22T00:00:09.642Z,2.93
2023-06-22T00:05:14.089Z,3.03
2023-06-22T00:10:15.960Z,2.93
2023-06-22T00:15:17.910Z,3.57
2023-06-22T00:20:19.872Z,3.50
2023-06-22T00:25:22.487Z,3.80
2023-06-22T00:30:24.502Z,3.07
2023-06-22T00:35:30.567Z,3.10
2023-06-22T00:40:34.779Z,4.13
2023-06-22T00:45:36.711Z,3.53
2023-06-22T00:50:39.246Z,2.93
2023-06-22T00:55:46.443Z,3.23
2023-06-22T01:00:49.132Z,3.53
2023-06-22T01:05:51.339Z,3.07
2023-06-22T01:11:23.041Z,3.17
2023-06-22T01:16:29.952Z,3.40
2023-06-22T01:21:33.145Z,3.40
2023-06-22T01:26:35.710Z,3.03
2023-06-22T01:31:37.771Z,3.37
2023-06-22T01:36:41.012Z,3.20
2023-06-22T01:41:44.481Z,3.90
2023-06-22T01:46:47.165Z,3.10
2023-06-22T01:51:50.135Z,3.20
2023-06-22T01:56:52.006Z,3.10
2023-06-22T02:02:07.474Z,4.00
2023-06-22T02:07:15.307Z,3.70
2023-06-22T02:12:21.489Z,3.30
2023-06-22T02:17:24.645Z,2.50
2023-06-22T02:22:26.552Z,3.07
2023-06-22T02:27:28.465Z,3.30
2023-06-22T02:32:30.458Z,2.87
2023-06-22T02:37:33.259Z,3.27
2023-06-22T02:42:35.237Z,3.20
2023-06-22T02:47:37.227Z,3.10
2023-06-22T02:52:40.290Z,2.70
2023-06-22T02:57:44.852Z,2.80
2023-06-22T03:02:48.357Z,2.97
2023-06-22T03:07:51.383Z,2.83
2023-06-22T03:12:53.404Z,3.60
2023-06-22T03:17:55.424Z,3.20
2023-06-22T03:22:58.889Z,3.13
2023-06-22T03:28:01.587Z,3.00
2023-06-22T03:33:03.720Z,3.53
2023-06-22T03:38:05.651Z,3.40
2023-06-22T03:43:07.648Z,2.53
2023-06-22T03:48:11.446Z,2.97
2023-06-22T03:53:14.292Z,2.60
2023-06-22T03:58:16.256Z,3.63
2023-06-22T04:03:21.818Z,2.63
2023-06-22T04:08:23.897Z,3.60
2023-06-22T04:13:25.776Z,3.20
2023-06-22T04:18:27.736Z,3.07
2023-06-22T04:23:29.783Z,3.00
2023-06-22T04:28:36.050Z,3.20
2023-06-22T04:33:39.199Z,2.90
2023-06-22T04:38:41.454Z,4.30
2023-06-22T04:43:43.329Z,4.00
2023-06-22T04:48:45.180Z,3.57
2023-06-22T04:53:47.010Z,3.20
2023-06-22T04:58:48.923Z,4.80
2023-06-22T05:03:51.302Z,4.03
2023-06-22T05:09:00.399Z,4.20
2023-06-22T05:14:02.333Z,3.63
2023-06-22T05:19:04.943Z,3.90
2023-06-22T05:24:07.239Z,4.10
2023-06-22T05:29:09.232Z,3.80
2023-06-22T05:34:11.162Z,3.50
2023-06-22T05:39:16.612Z,4.03
2023-06-22T05:44:18.832Z,4.57
2023-06-22T05:49:23.052Z,4.27
2023-06-22T05:54:25.047Z,3.60
2023-06-22T05:59:27.007Z,3.50
2023-06-22T06:04:29.056Z,3.70
2023-06-22T06:09:31.048Z,4.37
2023-06-22T06:14:32.969Z,3.97
2023-06-22T06:19:35.104Z,3.83
2023-06-22T06:24:37.033Z,3.87
2023-06-22T06:29:38.909Z,4.03
2023-06-22T06:34:41.772Z,3.53
2023-06-22T06:39:44.788Z,4.80
2023-06-22T06:44:47.141Z,4.20
2023-06-22T06:49:49.093Z,3.83
2023-06-22T06:54:52.889Z,3.30
2023-06-22T06:59:54.708Z,3.67
2023-06-22T07:04:56.623Z,3.57
2023-06-22T07:09:58.587Z,3.80
2023-06-22T07:15:06.201Z,3.40
2023-06-22T07:20:13.161Z,3.80
2023-06-22T07:25:16.393Z,3.17
2023-06-22T07:30:18.915Z,3.77
2023-06-22T07:35:20.863Z,4.13
2023-06-22T07:40:22.866Z,4.07
2023-06-22T07:45:24.834Z,4.27
2023-06-22T07:50:27.025Z,3.77
2023-06-22T07:55:29.697Z,3.40
2023-06-22T08:00:32.159Z,3.70
2023-06-22T08:05:34.705Z,4.00
2023-06-22T08:10:37.474Z,3.43
2023-06-22T08:15:39.582Z,3.90
2023-06-22T08:20:41.542Z,3.87
2023-06-22T08:25:43.482Z,3.53
2023-06-22T08:30:45.647Z,3.37
2023-06-22T08:35:47.508Z,4.03
2023-06-22T08:40:49.482Z,4.00
2023-06-22T08:45:51.492Z,4.80
2023-06-22T08:50:53.483Z,4.57
2023-06-22T08:55:55.568Z,4.30
2023-06-22T09:00:57.634Z,4.47
2023-06-22T09:06:00.296Z,4.30
2023-06-22T09:11:02.322Z,3.20
2023-06-22T09:16:04.411Z,3.97
2023-06-22T09:21:06.408Z,4.43
2023-06-22T09:26:09.236Z,4.80
2023-06-22T09:31:11.261Z,4.30
2023-06-22T09:36:13.305Z,4.10
2023-06-22T09:41:15.445Z,4.10
2023-06-22T09:46:18.102Z,3.53
2023-06-22T09:51:22.302Z,4.40
2023-06-22T09:56:24.266Z,3.60
2023-06-22T10:01:26.351Z,3.40
2023-06-22T10:06:28.344Z,3.30
2023-06-22T10:11:32.002Z,3.80
2023-06-22T10:16:36.603Z,4.47
2023-06-22T10:21:38.527Z,4.03
2023-06-22T10:26:40.539Z,3.67
2023-06-22T10:31:42.466Z,3.37
2023-06-22T10:36:44.552Z,3.30
2023-06-22T10:41:46.709Z,3.83
2023-06-22T10:46:48.868Z,3.30
2023-06-22T10:51:50.827Z,3.57
2023-06-22T10:56:52.811Z,4.20
2023-06-22T11:01:54.928Z,3.40
2023-06-22T11:06:57.516Z,3.87
2023-06-22T11:12:00.162Z,3.53
2023-06-22T11:17:02.674Z,3.87
2023-06-22T11:22:04.856Z,3.67
2023-06-22T11:27:07.174Z,4.40
2023-06-22T11:32:11.582Z,3.57
2023-06-22T11:37:14.501Z,3.63
2023-06-22T11:42:16.526Z,4.47
2023-06-22T11:47:18.517Z,4.37
2023-06-22T11:52:20.527Z,3.60
2023-06-22T11:57:22.488Z,4.60
2023-06-22T12:02:24.481Z,4.10
2023-06-22T12:07:26.631Z,4.50
2023-06-22T12:12:28.575Z,3.07
2023-06-22T12:17:31.185Z,4.00
2023-06-22T12:22:34.000Z,3.57
2023-06-22T12:27:39.459Z,4.70
2023-06-22T12:32:41.542Z,3.87
2023-06-22T12:37:44.406Z,4.17
2023-06-22T12:42:46.930Z,4.77
2023-06-22T12:47:51.092Z,4.47
2023-06-22T12:52:53.245Z,4.30
2023-06-22T12:57:55.402Z,3.93
2023-06-22T13:02:57.610Z,4.27
2023-06-22T13:07:59.750Z,3.40
2023-06-22T13:13:02.230Z,3.73
2023-06-22T13:18:04.570Z,3.80
2023-06-22T13:23:06.572Z,4.10
2023-06-22T13:28:16.047Z,3.93
2023-06-22T13:33:26.005Z,3.60
2023-06-22T13:38:28.189Z,3.20
2023-06-22T13:43:30.201Z,3.90
2023-06-22T13:48:32.243Z,3.90
2023-06-22T13:53:34.220Z,3.00
2023-06-22T13:58:36.435Z,3.03
2023-06-22T14:03:38.250Z,3.40
2023-06-22T14:14:02.042Z,3.53
2023-06-22T14:19:03.940Z,3.23
2023-06-22T14:24:05.914Z,2.60
2023-06-22T14:29:07.765Z,2.77
2023-06-22T14:34:09.633Z,2.30
2023-06-22T14:39:11.614Z,2.50
2023-06-22T14:44:13.516Z,2.37
2023-06-22T14:49:15.382Z,2.07
2023-06-22T14:54:17.271Z,1.90
2023-06-22T14:59:19.226Z,3.10
2023-06-22T15:04:21.095Z,2.30
2023-06-22T15:09:22.979Z,2.33
2023-06-22T15:14:25.779Z,1.90
2023-06-22T15:19:27.716Z,2.20
2023-06-22T15:24:29.609Z,2.80
2023-06-22T15:29:35.129Z,1.87
2023-06-22T15:34:37.127Z,1.90
2023-06-22T15:39:39.055Z,2.10
2023-06-22T15:44:40.981Z,2.10
2023-06-22T15:49:42.850Z,2.73
2023-06-22T15:54:45.170Z,2.37
2023-06-22T15:59:47.061Z,2.23
2023-06-22T16:04:49.088Z,2.50
2023-06-22T16:09:50.933Z,2.20
2023-06-22T16:14:52.821Z,2.20
2023-06-22T16:19:55.739Z,1.80
2023-06-22T16:24:59.247Z,1.97
2023-06-22T16:30:01.205Z,2.60
2023-06-22T16:35:03.689Z,2.33
2023-06-22T16:40:06.131Z,1.90
2023-06-22T16:45:08.288Z,2.67
2023-06-22T16:50:10.816Z,2.40
2023-06-22T16:55:13.171Z,2.43
2023-06-22T17:00:15.614Z,1.73
2023-06-22T17:05:20.796Z,2.07
2023-06-22T17:10:23.637Z,3.07
2023-06-22T17:15:28.103Z,3.10
2023-06-22T17:20:30.285Z,2.60
2023-06-22T17:25:35.359Z,2.10
2023-06-22T17:30:37.229Z,2.63
2023-06-22T17:35:52.726Z,2.07
2023-06-22T17:41:01.717Z,2.70
2023-06-22T17:46:03.630Z,3.10
2023-06-22T17:51:07.508Z,2.27
2023-06-22T17:56:09.374Z,2.27
2023-06-22T18:01:11.374Z,2.93
2023-06-22T18:06:13.859Z,2.57
2023-06-22T18:11:16.846Z,2.40
2023-06-22T18:16:18.939Z,1.90
2023-06-22T18:21:22.426Z,2.43
2023-06-22T18:26:28.178Z,2.30
2023-06-22T18:31:30.293Z,2.30
2023-06-22T18:36:46.340Z,2.57
2023-06-22T18:41:55.687Z,2.73
2023-06-22T18:47:05.017Z,2.60
2023-06-22T18:52:18.182Z,1.77
2023-06-22T18:57:28.060Z,1.70
2023-06-22T19:02:45.792Z,2.13
2023-06-22T19:07:54.035Z,1.90
2023-06-22T19:13:17.532Z,1.00
2023-06-22T19:18:31.600Z,1.37
2023-06-22T19:23:35.668Z,0.90
2023-06-22T19:28:52.434Z,1.20
2023-06-22T19:34:02.079Z,0.90
2023-06-22T19:39:05.610Z,0.97
2023-06-22T19:44:07.715Z,1.57
2023-06-22T19:49:10.099Z,0.87
2023-06-22T19:54:13.182Z,1.10
2023-06-22T19:59:21.365Z,1.23
2023-06-22T20:04:24.497Z,1.07
2023-06-22T20:09:27.128Z,1.60
2023-06-22T20:14:35.421Z,1.70
2023-06-22T20:19:42.268Z,0.90
2023-06-22T20:24:45.820Z,1.23
2023-06-22T20:29:49.366Z,1.00
2023-06-22T20:34:51.294Z,1.10
2023-06-22T20:39:53.372Z,1.10
2023-06-22T20:44:55.459Z,1.23
2023-06-22T20:50:00.301Z,1.00
2023-06-22T20:55:02.311Z,1.00
2023-06-22T21:00:08.171Z,0.97
2023-06-22T21:05:11.138Z,1.00
2023-06-22T21:10:13.181Z,0.90
2023-06-22T21:15:15.042Z,1.20
2023-06-22T21:20:18.781Z,1.00
2023-06-22T21:25:20.790Z,1.10
2023-06-22T21:30:22.780Z,1.00
2023-06-22T21:35:24.727Z,1.10
2023-06-22T21:40:26.684Z,0.90
2023-06-22T21:45:28.713Z,1.07
2023-06-22T21:50:30.774Z,1.20
2023-06-22T21:55:32.856Z,1.10
2023-06-22T22:00:35.034Z,0.80
2023-06-22T22:05:37.148Z,1.30
2023-06-22T22:10:39.061Z,1.10
2023-06-22T22:15:41.267Z,1.40
2023-06-22T22:20:43.252Z,1.20
2023-06-22T22:25:45.244Z,1.10
2023-06-22T22:30:47.308Z,1.27
2023-06-22T22:35:49.300Z,0.93
2023-06-22T22:40:51.171Z,1.23
2023-06-22T22:45:53.051Z,0.93
2023-06-22T22:50:54.932Z,1.00
2023-06-22T22:55:56.879Z,1.30
2023-06-22T23:01:00.106Z,1.00
2023-06-22T23:06:02.009Z,1.10
2023-06-22T23:11:03.971Z,1.07
2023-06-22T23:16:05.955Z,1.00
2023-06-22T23:21:08.769Z,1.40
2023-06-22T23:26:11.036Z,1.17
2023-06-22T23:31:13.031Z,1.23
2023-06-22T23:36:16.127Z,1.40
2023-06-22T23:41:17.994Z,1.10
2023-06-22T23:46:21.177Z,1.40
2023-06-22T23:51:23.160Z,1.00
2023-06-22T23:56:25.444Z,1.23
